RORH(METAR)
12/23 18:00
RORH 230900Z 08009KT 9999 FEW022 SCT036 23/17 Q1016 RMK A3002=
戻る
トップページへ戻る
IMOC Co,.Ltd.